createdAt,value
2018-12-27T00:00:23.011Z,28.67
2018-12-27T00:02:54.997Z,27.03
2018-12-27T00:05:22.962Z,28.23
2018-12-27T00:07:51.895Z,28.43
2018-12-27T00:10:20.856Z,27.20
2018-12-27T00:12:49.983Z,28.30
2018-12-27T00:15:18.940Z,30.83
2018-12-27T00:17:47.921Z,26.13
2018-12-27T00:20:16.946Z,26.87
2018-12-27T00:22:46.070Z,29.07
2018-12-27T00:25:15.283Z,27.67
2018-12-27T00:27:44.277Z,27.57
2018-12-27T00:30:13.601Z,28.57
2018-12-27T00:32:42.991Z,27.30
2018-12-27T00:35:12.145Z,28.73
2018-12-27T00:37:41.511Z,27.17
2018-12-27T00:40:10.750Z,28.30
2018-12-27T00:42:40.083Z,27.70
2018-12-27T00:45:09.466Z,28.50
2018-12-27T00:47:38.919Z,27.47
2018-12-27T00:50:08.395Z,29.00
2018-12-27T00:52:38.745Z,29.00
2018-12-27T00:55:08.074Z,27.85
2018-12-27T00:57:37.254Z,26.97
2018-12-27T01:00:07.517Z,28.03
2018-12-27T01:02:37.621Z,27.10
2018-12-27T01:05:06.967Z,30.30
2018-12-27T01:07:36.309Z,28.20
2018-12-27T01:10:05.585Z,29.53
2018-12-27T01:12:35.000Z,28.43
2018-12-27T01:15:04.363Z,30.20
2018-12-27T01:17:33.766Z,28.77
2018-12-27T01:20:03.003Z,28.70
2018-12-27T01:22:32.355Z,27.53
2018-12-27T01:25:01.781Z,26.23
2018-12-27T01:27:33.915Z,28.85
2018-12-27T01:30:03.188Z,30.20
2018-12-27T01:32:32.342Z,27.30
2018-12-27T01:35:01.690Z,27.90
2018-12-27T01:37:30.979Z,31.30
2018-12-27T01:40:00.367Z,27.90
2018-12-27T01:42:29.713Z,29.00
2018-12-27T01:44:58.881Z,26.50
2018-12-27T01:47:28.180Z,28.57
2018-12-27T01:49:57.442Z,28.87
2018-12-27T01:52:26.841Z,28.20
2018-12-27T01:54:56.159Z,28.67
2018-12-27T01:57:25.540Z,29.27
2018-12-27T01:59:54.776Z,27.63
2018-12-27T02:02:24.173Z,28.50
2018-12-27T02:04:53.557Z,26.43
2018-12-27T02:07:23.255Z,28.53
2018-12-27T02:09:52.511Z,27.50
2018-12-27T02:12:22.355Z,27.37
2018-12-27T02:14:51.879Z,29.50
2018-12-27T02:17:21.374Z,26.53
2018-12-27T02:19:50.494Z,27.87
2018-12-27T02:22:19.972Z,29.93
2018-12-27T02:24:49.465Z,26.90
2018-12-27T02:27:18.927Z,27.77
2018-12-27T02:29:48.222Z,28.50
2018-12-27T02:32:17.692Z,27.43
2018-12-27T02:34:46.975Z,28.83
2018-12-27T02:37:16.359Z,30.07
2018-12-27T02:39:45.744Z,27.80
2018-12-27T02:42:15.248Z,27.45
2018-12-27T02:44:44.620Z,27.15
2018-12-27T02:47:14.088Z,27.17
2018-12-27T02:49:43.512Z,27.37
2018-12-27T02:52:12.901Z,28.20
2018-12-27T02:54:42.270Z,27.32
2018-12-27T02:57:11.689Z,26.03
2018-12-27T02:59:41.064Z,26.30
2018-12-27T03:02:10.536Z,26.75
2018-12-27T03:04:39.897Z,26.70
2018-12-27T03:07:09.306Z,25.43
2018-12-27T03:09:38.804Z,25.33
2018-12-27T03:12:08.150Z,25.77
2018-12-27T03:14:37.628Z,26.60
2018-12-27T03:17:06.955Z,24.00
2018-12-27T03:19:36.399Z,25.35
2018-12-27T03:22:05.746Z,24.70
2018-12-27T03:24:35.239Z,26.02
2018-12-27T03:27:04.765Z,22.48
2018-12-27T03:29:34.128Z,23.67
2018-12-27T03:32:03.518Z,23.70
2018-12-27T03:34:32.999Z,22.30
2018-12-27T03:37:02.511Z,22.73
2018-12-27T03:39:31.944Z,22.53
2018-12-27T03:42:01.383Z,23.57
2018-12-27T03:44:30.862Z,23.92
2018-12-27T03:47:00.238Z,23.57
2018-12-27T03:49:29.631Z,22.37
2018-12-27T03:51:59.043Z,23.17
2018-12-27T03:54:28.390Z,23.47
2018-12-27T03:56:57.884Z,24.43
2018-12-27T03:59:27.245Z,23.35
2018-12-27T04:01:56.623Z,25.32
2018-12-27T04:04:25.916Z,24.00
2018-12-27T04:06:55.389Z,24.37
2018-12-27T04:09:24.859Z,26.35
2018-12-27T04:11:54.143Z,24.80
2018-12-27T04:14:23.540Z,25.77
2018-12-27T04:16:52.572Z,28.33
2018-12-27T04:19:21.605Z,25.20
2018-12-27T04:21:50.716Z,26.73
2018-12-27T04:24:20.293Z,26.57
2018-12-27T04:26:49.222Z,26.97
2018-12-27T04:29:18.028Z,28.13
2018-12-27T04:31:47.070Z,27.47
2018-12-27T04:34:16.541Z,27.95
2018-12-27T04:36:45.745Z,27.20
2018-12-27T04:39:14.871Z,26.80
2018-12-27T04:41:43.901Z,26.23
2018-12-27T04:44:12.707Z,27.60
2018-12-27T04:46:41.831Z,25.97
2018-12-27T04:49:10.767Z,25.30
2018-12-27T04:51:39.747Z,26.97
2018-12-27T04:54:08.821Z,27.42
2018-12-27T04:56:37.913Z,26.57
2018-12-27T04:59:07.094Z,26.25
2018-12-27T05:01:36.164Z,27.17
2018-12-27T05:04:05.276Z,26.35
2018-12-27T05:06:34.328Z,25.67
2018-12-27T05:09:04.633Z,27.42
2018-12-27T05:11:33.414Z,29.40
2018-12-27T05:14:02.630Z,26.00
2018-12-27T05:16:31.686Z,26.62
2018-12-27T05:19:00.672Z,25.70
2018-12-27T05:21:29.762Z,27.00
2018-12-27T05:23:58.804Z,26.40
2018-12-27T05:26:27.797Z,27.07
2018-12-27T05:28:56.820Z,26.40
2018-12-27T05:31:25.813Z,26.95
2018-12-27T05:33:54.607Z,27.57
2018-12-27T05:36:23.652Z,25.80
2018-12-27T05:38:52.443Z,27.98
2018-12-27T05:41:21.512Z,27.07
2018-12-27T05:43:50.580Z,26.48
2018-12-27T05:46:19.616Z,28.35
2018-12-27T05:48:49.551Z,24.90
2018-12-27T05:51:18.598Z,26.70
2018-12-27T05:53:47.643Z,27.07
2018-12-27T05:56:16.653Z,27.20
2018-12-27T05:58:45.770Z,27.00
2018-12-27T06:01:14.834Z,26.87
2018-12-27T06:03:43.884Z,26.80
2018-12-27T06:06:12.881Z,28.45
2018-12-27T06:08:41.804Z,26.97
2018-12-27T06:11:10.724Z,30.08
2018-12-27T06:13:39.666Z,30.00
2018-12-27T06:16:08.725Z,28.35
2018-12-27T06:18:37.625Z,25.77
2018-12-27T06:21:06.970Z,27.50
2018-12-27T06:23:36.000Z,28.50
2018-12-27T06:26:04.956Z,27.90
2018-12-27T06:28:33.939Z,27.10
2018-12-27T06:31:02.878Z,30.02
2018-12-27T06:33:31.858Z,27.15
2018-12-27T06:36:01.016Z,28.33
2018-12-27T06:38:30.016Z,26.20
2018-12-27T06:40:59.043Z,29.15
2018-12-27T06:43:28.088Z,29.70
2018-12-27T06:45:57.133Z,29.47
2018-12-27T06:48:26.195Z,32.83
2018-12-27T06:50:55.230Z,29.60
2018-12-27T06:53:24.141Z,28.83
2018-12-27T06:55:53.166Z,29.40
2018-12-27T06:58:22.323Z,31.47
2018-12-27T07:00:51.227Z,30.90
2018-12-27T07:03:20.266Z,31.82
2018-12-27T07:05:49.435Z,29.35
2018-12-27T07:08:18.357Z,28.60
2018-12-27T07:10:47.415Z,29.40
2018-12-27T07:13:16.435Z,28.13
2018-12-27T07:15:45.578Z,30.23
2018-12-27T07:18:14.596Z,29.53
2018-12-27T07:20:43.733Z,28.10
2018-12-27T07:23:12.551Z,30.33
2018-12-27T07:25:41.586Z,30.33
2018-12-27T07:28:10.643Z,30.13
2018-12-27T07:30:39.796Z,31.10
2018-12-27T07:33:08.590Z,31.60
2018-12-27T07:35:37.386Z,31.00
2018-12-27T07:38:06.336Z,29.47
2018-12-27T07:40:35.214Z,27.00
2018-12-27T07:43:04.270Z,28.50
2018-12-27T07:45:33.362Z,31.30
2018-12-27T07:48:02.370Z,28.20
2018-12-27T07:50:31.320Z,27.97
2018-12-27T07:53:00.414Z,28.40
2018-12-27T07:55:29.236Z,29.30
2018-12-27T07:57:58.243Z,27.40
2018-12-27T08:00:27.257Z,28.03
2018-12-27T08:02:56.252Z,29.12
2018-12-27T08:05:25.407Z,29.10
2018-12-27T08:07:54.316Z,28.50
2018-12-27T08:10:23.365Z,26.73
2018-12-27T08:12:54.748Z,30.80
2018-12-27T08:15:24.275Z,27.23
2018-12-27T08:17:53.445Z,28.47
2018-12-27T08:20:22.503Z,27.90
2018-12-27T08:22:51.654Z,27.70
2018-12-27T08:25:21.126Z,27.70
2018-12-27T08:27:50.181Z,28.03
2018-12-27T08:30:19.283Z,26.45
2018-12-27T08:32:48.281Z,28.63
2018-12-27T08:35:17.290Z,27.15
2018-12-27T08:37:46.256Z,27.40
2018-12-27T08:40:15.154Z,26.80
2018-12-27T08:42:44.198Z,26.90
2018-12-27T08:45:13.015Z,25.70
2018-12-27T08:47:42.140Z,25.30
2018-12-27T08:50:11.061Z,24.33
2018-12-27T08:52:40.200Z,24.10
2018-12-27T08:55:09.201Z,25.27
2018-12-27T08:57:38.235Z,25.40
2018-12-27T09:00:07.739Z,26.77
2018-12-27T09:02:36.754Z,25.97
2018-12-27T09:05:06.929Z,24.57
2018-12-27T09:07:35.847Z,24.87
2018-12-27T09:10:05.567Z,23.00
2018-12-27T09:12:36.127Z,22.87
2018-12-27T09:15:05.610Z,23.87
2018-12-27T09:17:34.656Z,22.40
2018-12-27T09:20:03.570Z,23.30
2018-12-27T09:22:32.462Z,26.83
2018-12-27T09:25:01.549Z,24.53
2018-12-27T09:27:30.670Z,27.27
2018-12-27T09:29:59.484Z,26.17
2018-12-27T09:32:28.553Z,26.17
2018-12-27T09:34:57.474Z,26.70
2018-12-27T09:37:26.533Z,27.48
2018-12-27T09:39:55.651Z,23.43
2018-12-27T09:42:24.569Z,25.77
2018-12-27T09:44:53.499Z,24.57
2018-12-27T09:47:22.523Z,25.10
2018-12-27T09:49:51.345Z,23.80
2018-12-27T09:52:20.349Z,25.20
2018-12-27T09:54:49.442Z,24.40
2018-12-27T09:57:18.536Z,23.33
2018-12-27T09:59:47.575Z,23.70
2018-12-27T10:02:16.598Z,24.07
2018-12-27T10:04:45.629Z,23.47
2018-12-27T10:07:14.771Z,23.03
2018-12-27T10:09:43.681Z,23.63
2018-12-27T10:12:12.825Z,24.15
2018-12-27T10:14:41.861Z,24.03
2018-12-27T10:17:10.770Z,24.40
2018-12-27T10:19:39.889Z,24.27
2018-12-27T10:22:08.706Z,23.20
2018-12-27T10:24:37.519Z,21.70
2018-12-27T10:27:06.537Z,23.60
2018-12-27T10:29:35.639Z,23.60
2018-12-27T10:32:04.817Z,22.37
2018-12-27T10:34:33.727Z,24.87
2018-12-27T10:37:02.627Z,22.77
2018-12-27T10:39:31.705Z,23.50
2018-12-27T10:42:00.814Z,21.53
2018-12-27T10:44:29.985Z,22.47
2018-12-27T10:46:59.216Z,22.63
2018-12-27T10:49:28.262Z,23.73
2018-12-27T10:51:57.301Z,23.70
2018-12-27T10:54:26.330Z,22.77
2018-12-27T10:56:55.479Z,22.07
2018-12-27T10:59:24.376Z,22.50
2018-12-27T11:01:53.283Z,22.80
2018-12-27T11:04:22.236Z,23.20
2018-12-27T11:06:51.258Z,24.07
2018-12-27T11:09:21.045Z,21.93
2018-12-27T11:11:49.967Z,23.77
2018-12-27T11:14:18.777Z,23.60
2018-12-27T11:16:47.776Z,24.17
2018-12-27T11:19:16.950Z,24.90
2018-12-27T11:21:45.837Z,25.07
2018-12-27T11:24:15.003Z,24.33
2018-12-27T11:26:43.899Z,23.07
2018-12-27T11:29:12.917Z,22.97
2018-12-27T11:31:41.947Z,21.37
2018-12-27T11:34:10.939Z,24.47
2018-12-27T11:36:39.832Z,22.43
2018-12-27T11:39:08.770Z,23.40
2018-12-27T11:41:37.946Z,23.80
2018-12-27T11:44:07.049Z,23.00
2018-12-27T11:46:35.960Z,22.80
2018-12-27T11:49:05.019Z,20.70
2018-12-27T11:51:34.809Z,21.77
2018-12-27T11:54:03.932Z,21.63
2018-12-27T11:56:32.967Z,24.20
2018-12-27T11:59:02.162Z,23.70
2018-12-27T12:01:31.147Z,21.67
2018-12-27T12:04:00.317Z,20.83
2018-12-27T12:06:29.203Z,23.33
2018-12-27T12:08:58.253Z,21.57
2018-12-27T12:11:27.276Z,22.90
2018-12-27T12:13:56.321Z,20.00
2018-12-27T12:16:25.224Z,23.87
2018-12-27T12:18:57.561Z,23.27
2018-12-27T12:21:26.713Z,23.00
2018-12-27T12:23:55.819Z,21.97
2018-12-27T12:26:24.849Z,21.83
2018-12-27T12:28:53.783Z,22.53
2018-12-27T12:31:22.806Z,20.80
2018-12-27T12:33:51.706Z,21.20
2018-12-27T12:36:20.614Z,20.10
2018-12-27T12:38:49.638Z,19.67
2018-12-27T12:41:18.819Z,20.03
2018-12-27T12:43:47.727Z,20.50
2018-12-27T12:46:16.753Z,22.10
2018-12-27T12:48:45.780Z,22.67
2018-12-27T12:51:14.790Z,21.20
2018-12-27T12:53:43.838Z,20.87
2018-12-27T12:56:12.841Z,22.17
2018-12-27T12:58:41.840Z,20.97
2018-12-27T13:01:10.847Z,20.87
2018-12-27T13:03:39.880Z,23.30
2018-12-27T13:06:08.908Z,22.30
2018-12-27T13:08:37.944Z,22.70
2018-12-27T13:11:06.846Z,23.87
2018-12-27T13:13:35.784Z,19.70
2018-12-27T13:16:04.875Z,22.30
2018-12-27T13:18:33.788Z,23.00
2018-12-27T13:21:02.741Z,21.70
2018-12-27T13:23:31.657Z,22.50
2018-12-27T13:26:00.730Z,21.57
2018-12-27T13:28:29.672Z,20.63
2018-12-27T13:30:58.563Z,22.67
2018-12-27T13:33:27.626Z,20.87
2018-12-27T13:35:56.747Z,21.00
2018-12-27T13:38:25.677Z,19.20
2018-12-27T13:40:54.606Z,20.10
2018-12-27T13:43:23.619Z,19.57
2018-12-27T13:45:52.712Z,19.53
2018-12-27T13:48:22.301Z,20.50
2018-12-27T13:50:51.287Z,20.00
2018-12-27T13:53:20.329Z,20.33
2018-12-27T13:55:49.450Z,18.57
2018-12-27T13:58:18.277Z,20.13
2018-12-27T14:00:47.315Z,21.90
2018-12-27T14:03:16.372Z,20.50
2018-12-27T14:05:45.500Z,20.03
2018-12-27T14:08:14.425Z,22.50
2018-12-27T14:10:43.561Z,22.10
2018-12-27T14:13:12.699Z,19.77
2018-12-27T14:15:41.729Z,18.33
2018-12-27T14:18:10.655Z,19.40
2018-12-27T14:20:39.714Z,20.07
2018-12-27T14:23:08.625Z,20.50
2018-12-27T14:25:37.660Z,18.60
2018-12-27T14:28:07.601Z,20.77
2018-12-27T14:30:36.721Z,19.40
2018-12-27T14:33:05.693Z,18.87
2018-12-27T14:35:34.635Z,19.80
2018-12-27T14:38:03.600Z,19.13
2018-12-27T14:40:32.708Z,19.10
2018-12-27T14:43:01.744Z,20.10
2018-12-27T14:45:30.768Z,20.53
2018-12-27T14:47:59.821Z,20.20
2018-12-27T14:50:28.909Z,18.03
2018-12-27T14:52:58.034Z,20.23
2018-12-27T14:55:26.996Z,24.13
2018-12-27T14:57:56.206Z,19.07
2018-12-27T15:00:25.215Z,19.97
2018-12-27T15:02:54.039Z,19.57
2018-12-27T15:05:23.167Z,19.13
2018-12-27T15:07:53.472Z,20.20
2018-12-27T15:10:22.490Z,20.30
2018-12-27T15:12:51.503Z,20.70
2018-12-27T15:15:20.698Z,21.87
2018-12-27T15:17:49.819Z,19.37
2018-12-27T15:20:18.715Z,21.40
2018-12-27T15:22:47.861Z,20.33
2018-12-27T15:25:16.926Z,20.13
2018-12-27T15:27:46.059Z,20.37
2018-12-27T15:30:15.081Z,22.60
2018-12-27T15:32:44.094Z,24.03
2018-12-27T15:35:13.183Z,23.13
2018-12-27T15:37:42.210Z,25.30
2018-12-27T15:40:11.334Z,30.17
2018-12-27T15:42:40.255Z,28.83
2018-12-27T15:45:09.066Z,24.43
2018-12-27T15:47:37.920Z,25.57
2018-12-27T15:50:07.685Z,26.20
2018-12-27T15:52:36.757Z,31.17
2018-12-27T15:55:05.892Z,25.53
2018-12-27T15:57:34.893Z,27.30
2018-12-27T16:00:04.323Z,24.00
2018-12-27T16:02:33.354Z,22.03
2018-12-27T16:05:02.477Z,22.47
2018-12-27T16:07:32.928Z,22.23
2018-12-27T16:10:01.812Z,21.83
2018-12-27T16:12:31.021Z,21.27
2018-12-27T16:14:59.945Z,21.37
2018-12-27T16:17:28.838Z,22.47
2018-12-27T16:19:57.778Z,19.33
2018-12-27T16:22:26.800Z,21.07
2018-12-27T16:24:55.953Z,20.10
2018-12-27T16:27:24.994Z,21.27
2018-12-27T16:29:54.023Z,21.93
2018-12-27T16:32:23.016Z,20.50
2018-12-27T16:34:52.067Z,22.17
2018-12-27T16:37:21.123Z,22.70
2018-12-27T16:39:50.256Z,23.70
2018-12-27T16:42:21.944Z,22.87
2018-12-27T16:44:50.131Z,21.57
2018-12-27T16:47:19.188Z,20.90
2018-12-27T16:49:48.195Z,21.97
2018-12-27T16:52:17.247Z,25.43
2018-12-27T16:54:46.421Z,23.30
2018-12-27T16:57:19.673Z,47.07
2018-12-27T16:59:46.163Z,46.63
2018-12-27T17:02:15.104Z,22.87
2018-12-27T17:04:44.160Z,23.73
2018-12-27T17:07:16.259Z,21.37
2018-12-27T17:09:43.808Z,23.30
2018-12-27T17:12:12.963Z,23.67
2018-12-27T17:14:41.832Z,26.20
2018-12-27T17:17:10.888Z,27.90
2018-12-27T17:19:40.168Z,25.90
2018-12-27T17:22:09.298Z,28.43
2018-12-27T17:24:38.691Z,25.43
2018-12-27T17:27:07.696Z,28.90
2018-12-27T17:29:36.744Z,25.37
2018-12-27T17:32:05.735Z,23.10
2018-12-27T17:34:34.655Z,21.47
2018-12-27T17:37:03.783Z,22.23
2018-12-27T17:39:32.847Z,24.33
2018-12-27T17:42:01.782Z,25.83
2018-12-27T17:44:30.825Z,23.93
2018-12-27T17:46:59.739Z,24.27
2018-12-27T17:49:28.764Z,25.73
2018-12-27T17:51:57.702Z,28.30
2018-12-27T17:54:26.798Z,27.87
2018-12-27T17:56:55.895Z,24.23
2018-12-27T17:59:24.985Z,27.00
2018-12-27T18:01:54.175Z,25.60
2018-12-27T18:04:23.388Z,21.50
2018-12-27T18:06:52.436Z,24.47
2018-12-27T18:09:21.454Z,23.03
2018-12-27T18:11:50.528Z,25.60
2018-12-27T18:14:19.513Z,23.80
2018-12-27T18:16:48.416Z,23.50
2018-12-27T18:19:17.463Z,22.23
2018-12-27T18:21:46.467Z,21.57
2018-12-27T18:24:15.503Z,22.17
2018-12-27T18:26:44.524Z,23.27
2018-12-27T18:29:13.556Z,21.43
2018-12-27T18:31:42.445Z,23.80
2018-12-27T18:34:11.389Z,22.67
2018-12-27T18:36:40.541Z,23.30
2018-12-27T18:39:09.705Z,22.67
2018-12-27T18:41:38.724Z,21.45
2018-12-27T18:44:07.752Z,22.30
2018-12-27T18:46:36.926Z,24.77
2018-12-27T18:49:05.827Z,22.10
2018-12-27T18:51:34.878Z,21.90
2018-12-27T18:54:03.920Z,20.88
2018-12-27T18:56:32.981Z,22.15
2018-12-27T18:59:01.961Z,21.67
2018-12-27T19:01:30.936Z,23.80
2018-12-27T19:03:59.847Z,23.90
2018-12-27T19:06:28.875Z,23.00
2018-12-27T19:08:57.957Z,22.97
2018-12-27T19:12:03.234Z,23.93
2018-12-27T19:14:32.057Z,23.50
2018-12-27T19:17:01.276Z,21.77
2018-12-27T19:19:30.285Z,20.60
2018-12-27T19:22:07.389Z,23.10
2018-12-27T19:24:36.437Z,20.43
2018-12-27T19:27:05.487Z,20.70
2018-12-27T19:29:34.519Z,19.55
2018-12-27T19:32:03.534Z,21.93
2018-12-27T19:34:32.651Z,24.23
2018-12-27T19:37:01.664Z,22.03
2018-12-27T19:39:30.741Z,25.20
2018-12-27T19:41:59.771Z,23.53
2018-12-27T19:44:28.961Z,21.87
2018-12-27T19:46:57.966Z,22.40
2018-12-27T19:49:27.118Z,22.10
2018-12-27T19:51:56.274Z,22.60
2018-12-27T19:54:31.848Z,19.90
2018-12-27T19:56:57.160Z,22.10
2018-12-27T19:59:26.253Z,21.40
2018-12-27T20:01:56.762Z,20.57
2018-12-27T20:04:25.967Z,19.20
2018-12-27T20:06:54.930Z,19.77
2018-12-27T20:09:23.918Z,21.40
2018-12-27T20:11:52.937Z,20.20
2018-12-27T20:14:21.857Z,22.60
2018-12-27T20:16:50.959Z,21.17
2018-12-27T20:19:19.969Z,22.50
2018-12-27T20:21:48.836Z,22.33
2018-12-27T20:24:17.898Z,22.70
2018-12-27T20:26:46.915Z,20.85
2018-12-27T20:29:15.955Z,18.70
2018-12-27T20:31:44.992Z,17.65
2018-12-27T20:34:13.886Z,18.40
2018-12-27T20:36:42.824Z,17.07
2018-12-27T20:39:11.879Z,17.60
2018-12-27T20:41:40.937Z,19.47
2018-12-27T20:44:10.023Z,17.60
2018-12-27T20:46:38.924Z,17.70
2018-12-27T20:49:08.202Z,17.90
2018-12-27T20:51:37.352Z,19.07
2018-12-27T20:54:06.267Z,18.90
2018-12-27T20:56:35.448Z,18.23
2018-12-27T20:59:04.485Z,19.03
2018-12-27T21:01:33.533Z,17.30
2018-12-27T21:04:02.523Z,18.50
2018-12-27T21:06:31.541Z,18.10
2018-12-27T21:09:00.556Z,18.12
2018-12-27T21:11:29.798Z,18.23
2018-12-27T21:13:58.825Z,18.20
2018-12-27T21:16:28.121Z,19.50
2018-12-27T21:18:57.146Z,17.30
2018-12-27T21:21:26.535Z,17.47
2018-12-27T21:23:55.532Z,15.57
2018-12-27T21:26:24.542Z,16.43
2018-12-27T21:28:53.452Z,16.60
2018-12-27T21:31:22.826Z,15.50
2018-12-27T21:33:51.710Z,15.40
2018-12-27T21:36:21.353Z,16.73
2018-12-27T21:38:50.595Z,16.27
2018-12-27T21:41:19.537Z,17.83
2018-12-27T21:43:48.743Z,16.48
2018-12-27T21:46:20.965Z,20.03
2018-12-27T21:48:49.997Z,26.40
2018-12-27T21:51:19.111Z,35.03
2018-12-27T21:53:47.932Z,23.55
2018-12-27T21:56:16.966Z,18.60
2018-12-27T21:58:46.082Z,20.73
2018-12-27T22:01:15.215Z,17.77
2018-12-27T22:03:44.224Z,18.50
2018-12-27T22:06:13.345Z,17.60
2018-12-27T22:08:42.219Z,16.17
2018-12-27T22:11:11.339Z,18.23
2018-12-27T22:13:40.262Z,15.90
2018-12-27T22:16:09.189Z,17.30
2018-12-27T22:18:38.114Z,18.60
2018-12-27T22:21:07.167Z,19.77
2018-12-27T22:23:36.272Z,19.07
2018-12-27T22:26:05.280Z,18.13
2018-12-27T22:28:34.323Z,18.77
2018-12-27T22:31:03.334Z,18.30
2018-12-27T22:33:32.351Z,18.00
2018-12-27T22:36:01.413Z,19.17
2018-12-27T22:38:35.560Z,17.70
2018-12-27T22:41:01.082Z,17.90
2018-12-27T22:43:30.195Z,17.50
2018-12-27T22:45:59.221Z,18.67
2018-12-27T22:48:28.260Z,20.57
2018-12-27T22:50:57.389Z,18.47
2018-12-27T22:53:26.527Z,18.03
2018-12-27T22:55:58.510Z,17.47
2018-12-27T22:58:27.590Z,17.12
2018-12-27T23:00:56.627Z,18.40
2018-12-27T23:03:25.728Z,18.80
2018-12-27T23:05:54.878Z,18.67
2018-12-27T23:08:23.923Z,17.83
2018-12-27T23:10:53.076Z,17.57
2018-12-27T23:13:22.102Z,18.87
2018-12-27T23:15:51.032Z,18.27
2018-12-27T23:18:19.953Z,17.37
2018-12-27T23:20:49.102Z,19.93
2018-12-27T23:23:17.957Z,19.47
2018-12-27T23:25:47.132Z,18.60
2018-12-27T23:28:16.170Z,18.37
2018-12-27T23:30:45.016Z,20.10
2018-12-27T23:33:13.930Z,17.50
2018-12-27T23:35:42.919Z,17.60
2018-12-27T23:38:11.833Z,16.37
2018-12-27T23:40:40.831Z,17.67
2018-12-27T23:43:10.013Z,16.37
2018-12-27T23:45:38.909Z,17.55
2018-12-27T23:48:07.731Z,18.47
2018-12-27T23:50:37.819Z,17.30
2018-12-27T23:53:06.884Z,17.50
2018-12-27T23:55:35.916Z,15.63
2018-12-27T23:58:05.051Z,17.90
